SBPV/PVH METAR and TAF weather

Enter ICAO airport designator
Station Type Date Time Source
SBPV METAR 2022/01/29 13:00 UTC NOAA

SBPV 291300Z 32002KT 9999 BKN004 OVC020 24/23 Q1010


Station Type Date Time Source
SBPV Decoded METAR 2022/01/29 13:00 UTC NOAA

Porto Velho Aeroporto , Brazil (SBPV) 08-46S 063-55W 102M
Jan 29, 2022 - 08:00 AM EST / 2022.01.29 1300 UTC
Wind: from the NW (320 degrees) at 2 MPH (2 KT):0
Visibility: greater than 7 mile(s):0
Sky conditions: overcast
Temperature: 75 F (24 C)
Dew Point: 73 F (23 C)
Relative Humidity: 94%
Pressure (altimeter): 29.83 in. Hg (1010 hPa)
ob: SBPV 291300Z 32002KT 9999 BKN004 OVC020 24/23 Q1010
cycle: 13

Station Type Date Time Source
SBPV TAF 2022/01/29 12:36 UTC NOAA

TAF SBPV 290830Z 2912/3012 01003KT 8000 BKN015 TX30/2918Z TN24/3009Z
TEMPO 2912/2914 4000 RA BKN010 OVC020 FEW030TCU
TEMPO 2918/2924 5000 TSRA BKN020 FEW030CB
RMK PGX

Example: see airport list